sensor_id;sensor_type;location;lat;lon;timestamp;temperature;humidity
18823;DHT22;9540;51.550;7.980;2023-05-29T00:01:26;12.10;99.90
18823;DHT22;9540;51.550;7.980;2023-05-29T00:03:55;12.00;99.90
18823;DHT22;9540;51.550;7.980;2023-05-29T00:06:22;12.00;99.90
18823;DHT22;9540;51.550;7.980;2023-05-29T00:08:49;12.00;99.90
18823;DHT22;9540;51.550;7.980;2023-05-29T00:11:16;12.00;99.90
18823;DHT22;9540;51.550;7.980;2023-05-29T00:13:43;11.90;99.90
18823;DHT22;9540;51.550;7.980;2023-05-29T00:16:10;11.90;99.90
18823;DHT22;9540;51.550;7.980;2023-05-29T00:18:38;11.90;99.90
18823;DHT22;9540;51.550;7.980;2023-05-29T00:21:12;11.80;99.90
18823;DHT22;9540;51.550;7.980;2023-05-29T00:23:40;11.80;99.90
18823;DHT22;9540;51.550;7.980;2023-05-29T00:26:07;11.80;99.90
18823;DHT22;9540;51.550;7.980;2023-05-29T00:28:35;11.70;99.90
18823;DHT22;9540;51.550;7.980;2023-05-29T00:31:02;11.70;99.90
18823;DHT22;9540;51.550;7.980;2023-05-29T00:33:29;11.60;99.90
18823;DHT22;9540;51.550;7.980;2023-05-29T00:35:56;11.60;99.90
18823;DHT22;9540;51.550;7.980;2023-05-29T00:38:25;11.60;99.90
18823;DHT22;9540;51.550;7.980;2023-05-29T00:40:52;11.60;99.90
18823;DHT22;9540;51.550;7.980;2023-05-29T00:43:19;11.50;99.90
18823;DHT22;9540;51.550;7.980;2023-05-29T00:45:46;11.50;99.90
18823;DHT22;9540;51.550;7.980;2023-05-29T00:48:13;11.50;99.90
18823;DHT22;9540;51.550;7.980;2023-05-29T00:50:41;11.40;99.90
18823;DHT22;9540;51.550;7.980;2023-05-29T00:53:08;11.40;99.90
18823;DHT22;9540;51.550;7.980;2023-05-29T00:55:37;11.40;99.90
18823;DHT22;9540;51.550;7.980;2023-05-29T00:58:07;11.40;99.90
18823;DHT22;9540;51.550;7.980;2023-05-29T01:00:35;11.30;99.90
18823;DHT22;9540;51.550;7.980;2023-05-29T01:03:04;11.30;99.90
18823;DHT22;9540;51.550;7.980;2023-05-29T01:05:34;11.20;99.90
18823;DHT22;9540;51.550;7.980;2023-05-29T01:08:01;11.10;99.90
18823;DHT22;9540;51.550;7.980;2023-05-29T01:10:29;11.10;99.90
18823;DHT22;9540;51.550;7.980;2023-05-29T01:13:05;11.10;99.90
18823;DHT22;9540;51.550;7.980;2023-05-29T01:15:40;11.10;99.90
18823;DHT22;9540;51.550;7.980;2023-05-29T01:18:31;11.00;99.90
18823;DHT22;9540;51.550;7.980;2023-05-29T01:21:06;10.90;99.90
18823;DHT22;9540;51.550;7.980;2023-05-29T01:23:59;10.90;99.90
18823;DHT22;9540;51.550;7.980;2023-05-29T01:26:46;10.90;99.90
18823;DHT22;9540;51.550;7.980;2023-05-29T01:29:15;10.80;99.90
18823;DHT22;9540;51.550;7.980;2023-05-29T01:31:46;10.80;99.90
18823;DHT22;9540;51.550;7.980;2023-05-29T01:34:14;10.80;99.90
18823;DHT22;9540;51.550;7.980;2023-05-29T01:36:44;10.70;99.90
18823;DHT22;9540;51.550;7.980;2023-05-29T01:39:12;10.70;99.90
18823;DHT22;9540;51.550;7.980;2023-05-29T01:41:42;10.70;99.90
18823;DHT22;9540;51.550;7.980;2023-05-29T01:44:10;10.60;99.90
18823;DHT22;9540;51.550;7.980;2023-05-29T01:46:38;10.60;99.90
18823;DHT22;9540;51.550;7.980;2023-05-29T01:49:06;10.50;99.90
18823;DHT22;9540;51.550;7.980;2023-05-29T01:51:34;10.50;99.90
18823;DHT22;9540;51.550;7.980;2023-05-29T01:54:01;10.50;99.90
18823;DHT22;9540;51.550;7.980;2023-05-29T01:56:29;10.40;99.90
18823;DHT22;9540;51.550;7.980;2023-05-29T01:59:00;10.40;99.90
18823;DHT22;9540;51.550;7.980;2023-05-29T02:01:29;10.40;99.90
18823;DHT22;9540;51.550;7.980;2023-05-29T02:03:56;10.30;99.90
18823;DHT22;9540;51.550;7.980;2023-05-29T02:06:23;10.30;99.90
18823;DHT22;9540;51.550;7.980;2023-05-29T02:08:50;10.30;99.90
18823;DHT22;9540;51.550;7.980;2023-05-29T02:11:17;10.20;99.90
18823;DHT22;9540;51.550;7.980;2023-05-29T02:13:46;10.20;99.90
18823;DHT22;9540;51.550;7.980;2023-05-29T02:16:14;10.10;99.90
18823;DHT22;9540;51.550;7.980;2023-05-29T02:18:42;10.10;99.90
18823;DHT22;9540;51.550;7.980;2023-05-29T02:21:10;10.10;99.90
18823;DHT22;9540;51.550;7.980;2023-05-29T02:23:37;10.00;99.90
18823;DHT22;9540;51.550;7.980;2023-05-29T02:26:04;10.00;99.90
18823;DHT22;9540;51.550;7.980;2023-05-29T02:28:31;10.00;99.90
18823;DHT22;9540;51.550;7.980;2023-05-29T02:30:58;9.90;99.90
18823;DHT22;9540;51.550;7.980;2023-05-29T02:33:27;9.90;99.90
18823;DHT22;9540;51.550;7.980;2023-05-29T02:35:55;9.90;99.90
18823;DHT22;9540;51.550;7.980;2023-05-29T02:38:22;9.80;99.90
18823;DHT22;9540;51.550;7.980;2023-05-29T02:40:49;9.80;99.90
18823;DHT22;9540;51.550;7.980;2023-05-29T02:43:16;9.70;99.90
18823;DHT22;9540;51.550;7.980;2023-05-29T02:45:43;9.70;99.90
18823;DHT22;9540;51.550;7.980;2023-05-29T02:48:11;9.70;99.90
18823;DHT22;9540;51.550;7.980;2023-05-29T02:50:39;9.60;99.90
18823;DHT22;9540;51.550;7.980;2023-05-29T02:53:06;9.50;99.90
18823;DHT22;9540;51.550;7.980;2023-05-29T02:55:33;9.50;99.90
18823;DHT22;9540;51.550;7.980;2023-05-29T02:58:01;9.40;99.90
18823;DHT22;9540;51.550;7.980;2023-05-29T03:00:29;9.40;99.90
18823;DHT22;9540;51.550;7.980;2023-05-29T03:02:56;9.40;99.90
18823;DHT22;9540;51.550;7.980;2023-05-29T03:05:23;9.30;99.90
18823;DHT22;9540;51.550;7.980;2023-05-29T03:07:52;9.10;99.90
18823;DHT22;9540;51.550;7.980;2023-05-29T03:10:21;9.00;99.90
18823;DHT22;9540;51.550;7.980;2023-05-29T03:12:48;9.00;99.90
18823;DHT22;9540;51.550;7.980;2023-05-29T03:15:17;8.90;99.90
18823;DHT22;9540;51.550;7.980;2023-05-29T03:17:45;8.90;99.90
18823;DHT22;9540;51.550;7.980;2023-05-29T03:20:13;8.70;99.90
18823;DHT22;9540;51.550;7.980;2023-05-29T03:22:41;8.70;99.90
18823;DHT22;9540;51.550;7.980;2023-05-29T03:25:10;8.70;99.90
18823;DHT22;9540;51.550;7.980;2023-05-29T03:27:37;8.70;99.90
18823;DHT22;9540;51.550;7.980;2023-05-29T03:30:05;8.70;99.90
18823;DHT22;9540;51.550;7.980;2023-05-29T03:32:32;8.70;99.90
18823;DHT22;9540;51.550;7.980;2023-05-29T03:35:00;8.60;99.90
18823;DHT22;9540;51.550;7.980;2023-05-29T03:37:29;8.60;99.90
18823;DHT22;9540;51.550;7.980;2023-05-29T03:39:56;8.60;99.90
18823;DHT22;9540;51.550;7.980;2023-05-29T03:42:24;8.50;99.90
18823;DHT22;9540;51.550;7.980;2023-05-29T03:44:52;8.50;99.90
18823;DHT22;9540;51.550;7.980;2023-05-29T03:47:19;8.50;99.90
18823;DHT22;9540;51.550;7.980;2023-05-29T03:49:46;8.60;99.90
18823;DHT22;9540;51.550;7.980;2023-05-29T03:52:13;8.50;99.90
18823;DHT22;9540;51.550;7.980;2023-05-29T03:54:41;8.50;99.90
18823;DHT22;9540;51.550;7.980;2023-05-29T03:57:08;8.50;99.90
18823;DHT22;9540;51.550;7.980;2023-05-29T03:59:37;8.60;99.90
18823;DHT22;9540;51.550;7.980;2023-05-29T04:02:04;8.60;99.90
18823;DHT22;9540;51.550;7.980;2023-05-29T04:04:32;8.70;99.90
18823;DHT22;9540;51.550;7.980;2023-05-29T04:06:59;8.80;99.90
18823;DHT22;9540;51.550;7.980;2023-05-29T04:09:26;8.90;99.90
18823;DHT22;9540;51.550;7.980;2023-05-29T04:11:53;8.90;99.90
18823;DHT22;9540;51.550;7.980;2023-05-29T04:14:21;9.00;99.90
18823;DHT22;9540;51.550;7.980;2023-05-29T04:16:50;9.00;99.90
18823;DHT22;9540;51.550;7.980;2023-05-29T04:19:17;9.10;99.90
18823;DHT22;9540;51.550;7.980;2023-05-29T04:21:44;9.10;99.90
18823;DHT22;9540;51.550;7.980;2023-05-29T04:24:13;9.10;99.90
18823;DHT22;9540;51.550;7.980;2023-05-29T04:26:40;9.20;99.90
18823;DHT22;9540;51.550;7.980;2023-05-29T04:29:07;9.20;99.90
18823;DHT22;9540;51.550;7.980;2023-05-29T04:31:34;9.30;99.90
18823;DHT22;9540;51.550;7.980;2023-05-29T04:34:04;9.40;99.90
18823;DHT22;9540;51.550;7.980;2023-05-29T04:36:31;9.40;99.90
18823;DHT22;9540;51.550;7.980;2023-05-29T04:38:59;9.50;99.90
18823;DHT22;9540;51.550;7.980;2023-05-29T04:41:27;9.60;99.90
18823;DHT22;9540;51.550;7.980;2023-05-29T04:43:56;9.60;99.90
18823;DHT22;9540;51.550;7.980;2023-05-29T04:46:24;9.70;99.90
18823;DHT22;9540;51.550;7.980;2023-05-29T04:48:51;9.80;99.90
18823;DHT22;9540;51.550;7.980;2023-05-29T04:51:21;9.80;99.90
18823;DHT22;9540;51.550;7.980;2023-05-29T04:53:49;9.90;99.90
18823;DHT22;9540;51.550;7.980;2023-05-29T04:56:17;10.00;99.90
18823;DHT22;9540;51.550;7.980;2023-05-29T04:58:44;10.00;99.90
18823;DHT22;9540;51.550;7.980;2023-05-29T05:01:11;10.00;99.90
18823;DHT22;9540;51.550;7.980;2023-05-29T05:03:40;10.00;99.90
18823;DHT22;9540;51.550;7.980;2023-05-29T05:06:07;10.10;99.90
18823;DHT22;9540;51.550;7.980;2023-05-29T05:08:36;10.10;99.90
18823;DHT22;9540;51.550;7.980;2023-05-29T05:11:03;10.20;99.90
18823;DHT22;9540;51.550;7.980;2023-05-29T05:13:32;10.30;99.90
18823;DHT22;9540;51.550;7.980;2023-05-29T05:15:59;10.30;99.90
18823;DHT22;9540;51.550;7.980;2023-05-29T05:18:26;10.40;99.90
18823;DHT22;9540;51.550;7.980;2023-05-29T05:20:53;10.40;99.90
18823;DHT22;9540;51.550;7.980;2023-05-29T05:23:20;10.50;99.90
18823;DHT22;9540;51.550;7.980;2023-05-29T05:25:49;10.50;99.90
18823;DHT22;9540;51.550;7.980;2023-05-29T05:28:16;10.60;99.90
18823;DHT22;9540;51.550;7.980;2023-05-29T05:30:43;10.70;99.90
18823;DHT22;9540;51.550;7.980;2023-05-29T05:33:10;10.80;99.90
18823;DHT22;9540;51.550;7.980;2023-05-29T05:35:37;10.80;99.90
18823;DHT22;9540;51.550;7.980;2023-05-29T05:38:04;10.90;99.90
18823;DHT22;9540;51.550;7.980;2023-05-29T05:40:32;11.00;99.90
18823;DHT22;9540;51.550;7.980;2023-05-29T05:43:01;11.00;99.90
18823;DHT22;9540;51.550;7.980;2023-05-29T05:45:28;11.10;99.90
18823;DHT22;9540;51.550;7.980;2023-05-29T05:47:56;11.10;99.90
18823;DHT22;9540;51.550;7.980;2023-05-29T05:50:23;11.10;99.90
18823;DHT22;9540;51.550;7.980;2023-05-29T05:52:51;11.10;99.90
18823;DHT22;9540;51.550;7.980;2023-05-29T05:55:18;11.20;99.90
18823;DHT22;9540;51.550;7.980;2023-05-29T05:57:45;11.10;99.90
18823;DHT22;9540;51.550;7.980;2023-05-29T06:00:15;11.20;99.90
18823;DHT22;9540;51.550;7.980;2023-05-29T06:02:42;11.30;99.90
18823;DHT22;9540;51.550;7.980;2023-05-29T06:05:10;11.30;99.90
18823;DHT22;9540;51.550;7.980;2023-05-29T06:07:38;11.30;99.90
18823;DHT22;9540;51.550;7.980;2023-05-29T06:10:06;11.40;99.90
18823;DHT22;9540;51.550;7.980;2023-05-29T06:12:33;11.40;99.90
18823;DHT22;9540;51.550;7.980;2023-05-29T06:15:01;11.50;99.90
18823;DHT22;9540;51.550;7.980;2023-05-29T06:17:30;11.60;99.90
18823;DHT22;9540;51.550;7.980;2023-05-29T06:19:57;11.70;99.90
18823;DHT22;9540;51.550;7.980;2023-05-29T06:22:24;11.70;99.90
18823;DHT22;9540;51.550;7.980;2023-05-29T06:24:51;11.70;99.90
18823;DHT22;9540;51.550;7.980;2023-05-29T06:27:21;11.80;99.90
18823;DHT22;9540;51.550;7.980;2023-05-29T06:29:51;11.90;99.90
18823;DHT22;9540;51.550;7.980;2023-05-29T06:32:18;12.00;99.90
18823;DHT22;9540;51.550;7.980;2023-05-29T06:34:47;12.10;99.90
18823;DHT22;9540;51.550;7.980;2023-05-29T06:37:14;12.00;99.90
18823;DHT22;9540;51.550;7.980;2023-05-29T06:39:44;12.10;99.90
18823;DHT22;9540;51.550;7.980;2023-05-29T06:42:11;12.20;99.90
18823;DHT22;9540;51.550;7.980;2023-05-29T06:44:38;12.20;99.90
18823;DHT22;9540;51.550;7.980;2023-05-29T06:47:06;12.30;99.90
18823;DHT22;9540;51.550;7.980;2023-05-29T06:49:33;12.30;99.90
18823;DHT22;9540;51.550;7.980;2023-05-29T06:52:01;12.40;99.90
18823;DHT22;9540;51.550;7.980;2023-05-29T06:54:29;12.50;99.90
18823;DHT22;9540;51.550;7.980;2023-05-29T06:56:56;12.60;99.90
18823;DHT22;9540;51.550;7.980;2023-05-29T06:59:23;12.70;99.90
18823;DHT22;9540;51.550;7.980;2023-05-29T07:01:50;12.70;99.90
18823;DHT22;9540;51.550;7.980;2023-05-29T07:04:17;12.70;99.90
18823;DHT22;9540;51.550;7.980;2023-05-29T07:06:44;12.80;99.90
18823;DHT22;9540;51.550;7.980;2023-05-29T07:09:13;12.80;99.90
18823;DHT22;9540;51.550;7.980;2023-05-29T07:11:40;12.80;99.90
18823;DHT22;9540;51.550;7.980;2023-05-29T07:14:07;12.90;99.90
18823;DHT22;9540;51.550;7.980;2023-05-29T07:16:34;12.90;99.90
18823;DHT22;9540;51.550;7.980;2023-05-29T07:19:02;12.90;99.90
18823;DHT22;9540;51.550;7.980;2023-05-29T07:21:29;13.00;99.90
18823;DHT22;9540;51.550;7.980;2023-05-29T07:23:57;13.20;99.90
18823;DHT22;9540;51.550;7.980;2023-05-29T07:26:25;13.30;99.90
18823;DHT22;9540;51.550;7.980;2023-05-29T07:28:52;13.40;99.90
18823;DHT22;9540;51.550;7.980;2023-05-29T07:31:19;13.50;99.90
18823;DHT22;9540;51.550;7.980;2023-05-29T07:33:46;13.60;99.90
18823;DHT22;9540;51.550;7.980;2023-05-29T07:36:15;13.70;99.90
18823;DHT22;9540;51.550;7.980;2023-05-29T07:38:42;13.80;99.90
18823;DHT22;9540;51.550;7.980;2023-05-29T07:41:10;13.80;99.90
18823;DHT22;9540;51.550;7.980;2023-05-29T07:43:39;13.90;99.90
18823;DHT22;9540;51.550;7.980;2023-05-29T07:46:06;14.00;99.90
18823;DHT22;9540;51.550;7.980;2023-05-29T07:48:33;14.10;99.90
18823;DHT22;9540;51.550;7.980;2023-05-29T07:51:00;14.10;99.90
18823;DHT22;9540;51.550;7.980;2023-05-29T07:53:27;14.10;99.90
18823;DHT22;9540;51.550;7.980;2023-05-29T07:55:54;14.10;99.90
18823;DHT22;9540;51.550;7.980;2023-05-29T07:58:21;14.00;99.90
18823;DHT22;9540;51.550;7.980;2023-05-29T08:00:50;13.90;99.90
18823;DHT22;9540;51.550;7.980;2023-05-29T08:03:17;13.90;99.90
18823;DHT22;9540;51.550;7.980;2023-05-29T08:05:44;14.00;99.90
18823;DHT22;9540;51.550;7.980;2023-05-29T08:08:11;14.10;99.90
18823;DHT22;9540;51.550;7.980;2023-05-29T08:10:39;14.20;99.90
18823;DHT22;9540;51.550;7.980;2023-05-29T08:13:06;14.40;99.90
18823;DHT22;9540;51.550;7.980;2023-05-29T08:15:33;14.40;99.90
18823;DHT22;9540;51.550;7.980;2023-05-29T08:18:02;14.60;99.90
18823;DHT22;9540;51.550;7.980;2023-05-29T08:20:29;14.60;99.90
18823;DHT22;9540;51.550;7.980;2023-05-29T08:22:57;14.80;99.90
18823;DHT22;9540;51.550;7.980;2023-05-29T08:25:24;14.90;99.90
18823;DHT22;9540;51.550;7.980;2023-05-29T08:27:51;14.90;99.90
18823;DHT22;9540;51.550;7.980;2023-05-29T08:30:18;14.90;99.90
18823;DHT22;9540;51.550;7.980;2023-05-29T08:32:45;15.00;99.90
18823;DHT22;9540;51.550;7.980;2023-05-29T08:35:14;15.00;99.90
18823;DHT22;9540;51.550;7.980;2023-05-29T08:37:42;15.10;99.90
18823;DHT22;9540;51.550;7.980;2023-05-29T08:40:10;15.20;99.90
18823;DHT22;9540;51.550;7.980;2023-05-29T08:42:45;15.30;99.90
18823;DHT22;9540;51.550;7.980;2023-05-29T08:45:14;15.50;99.90
18823;DHT22;9540;51.550;7.980;2023-05-29T08:47:41;15.70;99.90
18823;DHT22;9540;51.550;7.980;2023-05-29T08:50:10;15.90;99.90
18823;DHT22;9540;51.550;7.980;2023-05-29T08:52:40;15.90;99.90
18823;DHT22;9540;51.550;7.980;2023-05-29T08:55:08;15.90;99.90
18823;DHT22;9540;51.550;7.980;2023-05-29T08:57:36;15.90;99.90
18823;DHT22;9540;51.550;7.980;2023-05-29T09:00:05;15.90;99.90
18823;DHT22;9540;51.550;7.980;2023-05-29T09:02:35;15.90;99.90
18823;DHT22;9540;51.550;7.980;2023-05-29T09:05:04;15.80;99.90
18823;DHT22;9540;51.550;7.980;2023-05-29T09:07:32;15.80;99.90
18823;DHT22;9540;51.550;7.980;2023-05-29T09:10:01;15.90;99.90
18823;DHT22;9540;51.550;7.980;2023-05-29T09:12:28;16.00;99.90
18823;DHT22;9540;51.550;7.980;2023-05-29T09:14:55;16.00;99.90
18823;DHT22;9540;51.550;7.980;2023-05-29T09:17:22;16.00;99.90
18823;DHT22;9540;51.550;7.980;2023-05-29T09:19:50;16.00;99.90
18823;DHT22;9540;51.550;7.980;2023-05-29T09:22:17;16.10;99.90
18823;DHT22;9540;51.550;7.980;2023-05-29T09:24:46;16.20;99.90
18823;DHT22;9540;51.550;7.980;2023-05-29T09:27:15;16.40;99.90
18823;DHT22;9540;51.550;7.980;2023-05-29T09:29:45;16.40;99.90
18823;DHT22;9540;51.550;7.980;2023-05-29T09:32:15;16.40;99.90
18823;DHT22;9540;51.550;7.980;2023-05-29T09:34:42;16.40;99.90
18823;DHT22;9540;51.550;7.980;2023-05-29T09:37:11;16.40;99.90
18823;DHT22;9540;51.550;7.980;2023-05-29T09:39:48;16.40;99.90
18823;DHT22;9540;51.550;7.980;2023-05-29T09:42:18;16.40;99.90
18823;DHT22;9540;51.550;7.980;2023-05-29T09:44:52;16.50;99.90
18823;DHT22;9540;51.550;7.980;2023-05-29T09:47:25;16.50;99.90
18823;DHT22;9540;51.550;7.980;2023-05-29T09:49:55;16.60;99.90
18823;DHT22;9540;51.550;7.980;2023-05-29T09:52:22;16.70;99.90
18823;DHT22;9540;51.550;7.980;2023-05-29T09:54:50;16.70;99.90
18823;DHT22;9540;51.550;7.980;2023-05-29T09:57:20;16.60;99.90
18823;DHT22;9540;51.550;7.980;2023-05-29T09:59:49;16.70;99.90
18823;DHT22;9540;51.550;7.980;2023-05-29T10:02:19;16.70;99.90
18823;DHT22;9540;51.550;7.980;2023-05-29T10:04:48;16.90;99.90
18823;DHT22;9540;51.550;7.980;2023-05-29T10:07:22;17.00;99.90
18823;DHT22;9540;51.550;7.980;2023-05-29T10:09:55;17.10;99.90
18823;DHT22;9540;51.550;7.980;2023-05-29T10:12:27;17.00;99.90
18823;DHT22;9540;51.550;7.980;2023-05-29T10:14:57;17.10;99.90
18823;DHT22;9540;51.550;7.980;2023-05-29T10:17:28;17.10;99.90
18823;DHT22;9540;51.550;7.980;2023-05-29T10:20:02;17.10;99.90
18823;DHT22;9540;51.550;7.980;2023-05-29T10:22:32;17.10;99.90
18823;DHT22;9540;51.550;7.980;2023-05-29T10:25:00;17.10;99.90
18823;DHT22;9540;51.550;7.980;2023-05-29T10:27:29;17.10;99.90
18823;DHT22;9540;51.550;7.980;2023-05-29T10:30:02;17.10;99.90
18823;DHT22;9540;51.550;7.980;2023-05-29T10:32:39;17.00;99.90
18823;DHT22;9540;51.550;7.980;2023-05-29T10:35:14;17.00;99.90
18823;DHT22;9540;51.550;7.980;2023-05-29T10:37:46;17.00;99.90
18823;DHT22;9540;51.550;7.980;2023-05-29T10:40:14;17.00;99.90
18823;DHT22;9540;51.550;7.980;2023-05-29T10:42:45;17.10;99.90
18823;DHT22;9540;51.550;7.980;2023-05-29T10:48:43;17.40;99.90
18823;DHT22;9540;51.550;7.980;2023-05-29T10:51:27;17.50;99.90
18823;DHT22;9540;51.550;7.980;2023-05-29T10:53:55;17.50;99.90
18823;DHT22;9540;51.550;7.980;2023-05-29T10:56:23;17.60;99.90
18823;DHT22;9540;51.550;7.980;2023-05-29T10:58:58;17.60;99.90
18823;DHT22;9540;51.550;7.980;2023-05-29T11:01:28;17.80;99.90
18823;DHT22;9540;51.550;7.980;2023-05-29T11:04:26;17.90;99.90
18823;DHT22;9540;51.550;7.980;2023-05-29T11:06:53;18.00;99.90
18823;DHT22;9540;51.550;7.980;2023-05-29T11:09:28;18.00;99.90
18823;DHT22;9540;51.550;7.980;2023-05-29T11:12:21;18.10;99.90
18823;DHT22;9540;51.550;7.980;2023-05-29T11:15:03;18.10;99.90
18823;DHT22;9540;51.550;7.980;2023-05-29T11:17:32;18.10;99.90
18823;DHT22;9540;51.550;7.980;2023-05-29T11:20:04;18.20;99.90
18823;DHT22;9540;51.550;7.980;2023-05-29T11:22:53;18.20;99.90
18823;DHT22;9540;51.550;7.980;2023-05-29T11:25:23;18.30;99.90
18823;DHT22;9540;51.550;7.980;2023-05-29T11:27:51;18.30;99.90
18823;DHT22;9540;51.550;7.980;2023-05-29T11:30:22;18.40;99.90
18823;DHT22;9540;51.550;7.980;2023-05-29T11:32:52;18.50;99.90
18823;DHT22;9540;51.550;7.980;2023-05-29T11:35:22;18.50;99.90
18823;DHT22;9540;51.550;7.980;2023-05-29T11:37:50;18.60;99.90
18823;DHT22;9540;51.550;7.980;2023-05-29T11:40:18;18.60;99.90
18823;DHT22;9540;51.550;7.980;2023-05-29T11:42:46;18.70;99.90
18823;DHT22;9540;51.550;7.980;2023-05-29T11:45:14;18.70;99.90
18823;DHT22;9540;51.550;7.980;2023-05-29T11:47:55;18.70;99.90
18823;DHT22;9540;51.550;7.980;2023-05-29T11:50:25;18.70;99.90
18823;DHT22;9540;51.550;7.980;2023-05-29T11:52:55;18.80;99.90
18823;DHT22;9540;51.550;7.980;2023-05-29T11:55:23;18.80;99.90
18823;DHT22;9540;51.550;7.980;2023-05-29T11:57:50;18.90;99.90
18823;DHT22;9540;51.550;7.980;2023-05-29T12:00:18;18.90;99.90
18823;DHT22;9540;51.550;7.980;2023-05-29T12:02:46;18.90;99.90
18823;DHT22;9540;51.550;7.980;2023-05-29T12:05:16;18.90;99.90
18823;DHT22;9540;51.550;7.980;2023-05-29T12:07:47;18.80;99.90
18823;DHT22;9540;51.550;7.980;2023-05-29T12:10:17;18.80;99.90
18823;DHT22;9540;51.550;7.980;2023-05-29T12:12:47;18.90;99.90
18823;DHT22;9540;51.550;7.980;2023-05-29T12:15:14;18.90;99.90
18823;DHT22;9540;51.550;7.980;2023-05-29T12:17:45;18.90;99.90
18823;DHT22;9540;51.550;7.980;2023-05-29T12:20:13;19.10;99.90
18823;DHT22;9540;51.550;7.980;2023-05-29T12:22:42;19.20;99.90
18823;DHT22;9540;51.550;7.980;2023-05-29T12:25:11;19.20;99.90
18823;DHT22;9540;51.550;7.980;2023-05-29T12:27:39;19.10;99.90
18823;DHT22;9540;51.550;7.980;2023-05-29T12:30:13;19.00;99.90
18823;DHT22;9540;51.550;7.980;2023-05-29T12:32:43;19.00;99.90
18823;DHT22;9540;51.550;7.980;2023-05-29T12:35:15;19.00;99.90
18823;DHT22;9540;51.550;7.980;2023-05-29T12:37:45;19.20;99.90
18823;DHT22;9540;51.550;7.980;2023-05-29T12:40:16;19.20;99.90
18823;DHT22;9540;51.550;7.980;2023-05-29T12:42:44;19.10;99.90
18823;DHT22;9540;51.550;7.980;2023-05-29T12:45:12;19.20;99.90
18823;DHT22;9540;51.550;7.980;2023-05-29T12:47:45;19.20;99.90
18823;DHT22;9540;51.550;7.980;2023-05-29T12:50:31;19.20;99.90
18823;DHT22;9540;51.550;7.980;2023-05-29T12:53:01;19.20;99.90
18823;DHT22;9540;51.550;7.980;2023-05-29T12:55:31;19.30;99.90
18823;DHT22;9540;51.550;7.980;2023-05-29T12:57:59;19.40;99.90
18823;DHT22;9540;51.550;7.980;2023-05-29T13:00:29;19.50;99.90
18823;DHT22;9540;51.550;7.980;2023-05-29T13:02:57;19.60;99.90
18823;DHT22;9540;51.550;7.980;2023-05-29T13:05:24;19.70;99.90
18823;DHT22;9540;51.550;7.980;2023-05-29T13:07:52;19.60;99.90
18823;DHT22;9540;51.550;7.980;2023-05-29T13:10:21;19.50;99.90
18823;DHT22;9540;51.550;7.980;2023-05-29T13:12:49;19.50;99.90
18823;DHT22;9540;51.550;7.980;2023-05-29T13:15:20;19.40;99.90
18823;DHT22;9540;51.550;7.980;2023-05-29T13:17:48;19.50;99.90
18823;DHT22;9540;51.550;7.980;2023-05-29T13:20:15;19.60;99.90
18823;DHT22;9540;51.550;7.980;2023-05-29T13:22:43;19.50;99.90
18823;DHT22;9540;51.550;7.980;2023-05-29T13:25:13;19.50;99.90
18823;DHT22;9540;51.550;7.980;2023-05-29T13:27:43;19.50;99.90
18823;DHT22;9540;51.550;7.980;2023-05-29T13:30:12;19.60;99.90
18823;DHT22;9540;51.550;7.980;2023-05-29T13:32:40;19.70;99.90
18823;DHT22;9540;51.550;7.980;2023-05-29T13:35:07;19.70;99.90
18823;DHT22;9540;51.550;7.980;2023-05-29T13:37:35;19.60;99.90
18823;DHT22;9540;51.550;7.980;2023-05-29T13:40:03;19.70;99.90
18823;DHT22;9540;51.550;7.980;2023-05-29T13:42:31;19.80;99.90
18823;DHT22;9540;51.550;7.980;2023-05-29T13:45:00;19.80;99.90
18823;DHT22;9540;51.550;7.980;2023-05-29T13:47:27;19.70;99.90
18823;DHT22;9540;51.550;7.980;2023-05-29T13:49:57;19.90;99.90
18823;DHT22;9540;51.550;7.980;2023-05-29T13:52:24;19.90;99.90
18823;DHT22;9540;51.550;7.980;2023-05-29T13:54:52;19.40;99.90
18823;DHT22;9540;51.550;7.980;2023-05-29T13:57:19;19.40;99.90
18823;DHT22;9540;51.550;7.980;2023-05-29T13:59:46;19.40;99.90
18823;DHT22;9540;51.550;7.980;2023-05-29T14:02:17;19.70;99.90
18823;DHT22;9540;51.550;7.980;2023-05-29T14:04:44;19.90;99.90
18823;DHT22;9540;51.550;7.980;2023-05-29T14:07:11;20.00;99.90
18823;DHT22;9540;51.550;7.980;2023-05-29T14:09:38;20.00;99.90
18823;DHT22;9540;51.550;7.980;2023-05-29T14:12:06;20.00;99.90
18823;DHT22;9540;51.550;7.980;2023-05-29T14:14:34;20.10;99.90
18823;DHT22;9540;51.550;7.980;2023-05-29T14:17:01;20.20;99.90
18823;DHT22;9540;51.550;7.980;2023-05-29T14:19:31;20.20;99.90
18823;DHT22;9540;51.550;7.980;2023-05-29T14:21:58;20.30;99.90
18823;DHT22;9540;51.550;7.980;2023-05-29T14:24:26;20.20;99.90
18823;DHT22;9540;51.550;7.980;2023-05-29T14:26:54;20.20;99.90
18823;DHT22;9540;51.550;7.980;2023-05-29T14:29:21;20.20;99.90
18823;DHT22;9540;51.550;7.980;2023-05-29T14:31:49;20.20;99.90
18823;DHT22;9540;51.550;7.980;2023-05-29T14:34:16;20.30;99.90
18823;DHT22;9540;51.550;7.980;2023-05-29T14:36:45;20.20;99.90
18823;DHT22;9540;51.550;7.980;2023-05-29T14:39:12;20.10;99.90
18823;DHT22;9540;51.550;7.980;2023-05-29T14:41:39;20.10;99.90
18823;DHT22;9540;51.550;7.980;2023-05-29T14:44:07;20.10;99.90
18823;DHT22;9540;51.550;7.980;2023-05-29T14:46:34;20.10;99.90
18823;DHT22;9540;51.550;7.980;2023-05-29T14:49:01;20.00;99.90
18823;DHT22;9540;51.550;7.980;2023-05-29T14:51:28;20.00;99.90
18823;DHT22;9540;51.550;7.980;2023-05-29T14:53:57;20.10;99.90
18823;DHT22;9540;51.550;7.980;2023-05-29T14:56:24;20.00;99.90
18823;DHT22;9540;51.550;7.980;2023-05-29T14:58:52;20.10;99.90
18823;DHT22;9540;51.550;7.980;2023-05-29T15:01:19;20.10;99.90
18823;DHT22;9540;51.550;7.980;2023-05-29T15:03:47;20.10;99.90
18823;DHT22;9540;51.550;7.980;2023-05-29T15:06:14;20.10;99.90
18823;DHT22;9540;51.550;7.980;2023-05-29T15:08:41;20.10;99.90
18823;DHT22;9540;51.550;7.980;2023-05-29T15:11:10;20.10;99.90
18823;DHT22;9540;51.550;7.980;2023-05-29T15:13:40;20.10;99.90
18823;DHT22;9540;51.550;7.980;2023-05-29T15:16:08;20.10;99.90
18823;DHT22;9540;51.550;7.980;2023-05-29T15:18:35;20.20;99.90
18823;DHT22;9540;51.550;7.980;2023-05-29T15:21:02;20.20;99.90
18823;DHT22;9540;51.550;7.980;2023-05-29T15:23:30;20.30;99.90
18823;DHT22;9540;51.550;7.980;2023-05-29T15:25:59;20.20;99.90
18823;DHT22;9540;51.550;7.980;2023-05-29T15:28:28;20.30;99.90
18823;DHT22;9540;51.550;7.980;2023-05-29T15:30:55;20.40;99.90
18823;DHT22;9540;51.550;7.980;2023-05-29T15:33:22;20.40;99.90
18823;DHT22;9540;51.550;7.980;2023-05-29T15:35:50;20.50;99.90
18823;DHT22;9540;51.550;7.980;2023-05-29T15:38:17;20.50;99.90
18823;DHT22;9540;51.550;7.980;2023-05-29T15:40:44;20.40;99.90
18823;DHT22;9540;51.550;7.980;2023-05-29T15:43:12;20.20;99.90
18823;DHT22;9540;51.550;7.980;2023-05-29T15:45:40;20.20;99.90
18823;DHT22;9540;51.550;7.980;2023-05-29T15:48:08;20.20;99.90
18823;DHT22;9540;51.550;7.980;2023-05-29T15:50:36;20.20;99.90
18823;DHT22;9540;51.550;7.980;2023-05-29T15:53:03;20.30;99.90
18823;DHT22;9540;51.550;7.980;2023-05-29T15:55:30;20.30;99.90
18823;DHT22;9540;51.550;7.980;2023-05-29T15:57:58;20.30;99.90
18823;DHT22;9540;51.550;7.980;2023-05-29T16:00:25;20.40;99.90